createdAt,value
2019-02-25T00:02:11.341Z,1.60
2019-02-25T00:04:41.918Z,1.60
2019-02-25T00:07:12.483Z,1.60
2019-02-25T00:09:43.123Z,1.70
2019-02-25T00:12:13.684Z,1.70
2019-02-25T00:14:44.302Z,1.60
2019-02-25T00:17:14.853Z,1.60
2019-02-25T00:19:45.470Z,1.40
2019-02-25T00:22:16.036Z,1.30
2019-02-25T00:24:47.140Z,1.20
2019-02-25T00:27:17.760Z,1.00
2019-02-25T00:29:48.837Z,1.00
2019-02-25T00:32:19.394Z,1.00
2019-02-25T00:34:50.090Z,1.00
2019-02-25T00:37:20.655Z,1.00
2019-02-25T00:39:51.703Z,1.10
2019-02-25T00:42:22.260Z,1.10
2019-02-25T00:44:52.954Z,1.10
2019-02-25T00:47:23.526Z,1.10
2019-02-25T00:49:54.164Z,1.10
2019-02-25T00:52:24.739Z,1.20
2019-02-25T00:54:55.445Z,1.20
2019-02-25T00:57:26.306Z,1.40
2019-02-25T00:59:57.004Z,1.60
2019-02-25T01:02:27.555Z,1.80
2019-02-25T01:04:58.275Z,1.90
2019-02-25T01:07:29.229Z,2.00
2019-02-25T01:09:59.937Z,1.90
2019-02-25T01:12:30.488Z,1.90
2019-02-25T01:15:01.084Z,1.80
2019-02-25T01:17:31.652Z,1.40
2019-02-25T01:20:02.693Z,1.30
2019-02-25T01:22:33.258Z,1.40
2019-02-25T01:25:04.013Z,1.30
2019-02-25T01:27:34.759Z,1.20
2019-02-25T01:30:07.082Z,1.20
2019-02-25T01:32:38.033Z,1.20
2019-02-25T01:35:11.113Z,1.10
2019-02-25T01:37:42.018Z,0.90
2019-02-25T01:40:13.168Z,0.80
2019-02-25T01:42:43.765Z,0.80
2019-02-25T01:45:14.653Z,0.80
2019-02-25T01:47:45.235Z,0.70
2019-02-25T01:50:16.037Z,0.60
2019-02-25T01:52:46.626Z,0.50
2019-02-25T01:55:17.215Z,0.50
2019-02-25T01:57:47.783Z,0.50
2019-02-25T02:00:18.395Z,0.50
2019-02-25T02:02:49.030Z,0.50
2019-02-25T02:05:19.743Z,0.40
2019-02-25T02:07:50.679Z,0.40
2019-02-25T02:10:21.238Z,0.30
2019-02-25T02:12:51.848Z,0.40
2019-02-25T02:15:22.534Z,0.40
2019-02-25T02:17:53.214Z,0.40
2019-02-25T02:20:23.771Z,0.30
2019-02-25T02:22:54.475Z,0.30
2019-02-25T02:25:25.052Z,0.20
2019-02-25T02:27:55.786Z,0.20
2019-02-25T02:30:26.367Z,0.30
2019-02-25T02:32:57.114Z,0.20
2019-02-25T02:35:27.684Z,0.10
2019-02-25T02:37:58.475Z,0.10
2019-02-25T02:40:29.038Z,0.20
2019-02-25T02:43:00.055Z,0.30
2019-02-25T02:46:03.471Z,0.10
2019-02-25T02:49:00.647Z,0.10
2019-02-25T02:51:31.222Z,0.10
2019-02-25T02:54:01.953Z,0.10
2019-02-25T02:56:32.514Z,0.00
2019-02-25T02:59:03.203Z,-0.10
2019-02-25T03:01:33.763Z,-0.10
2019-02-25T03:04:04.489Z,-0.10
2019-02-25T03:06:35.380Z,0.00
2019-02-25T03:09:07.954Z,0.10
2019-02-25T03:11:38.725Z,0.20
2019-02-25T03:14:09.302Z,0.20
2019-02-25T03:16:40.088Z,0.20
2019-02-25T03:19:10.984Z,0.30
2019-02-25T03:21:41.745Z,0.20
2019-02-25T03:24:12.309Z,0.30
2019-02-25T03:26:43.009Z,0.40
2019-02-25T03:29:13.597Z,0.50
2019-02-25T03:31:44.392Z,0.60
2019-02-25T03:34:15.037Z,0.60
2019-02-25T03:36:45.733Z,0.50
2019-02-25T03:39:16.318Z,0.40
2019-02-25T03:41:46.997Z,0.40
2019-02-25T03:44:17.968Z,0.30
2019-02-25T03:46:48.832Z,0.40
2019-02-25T03:49:19.420Z,0.30
2019-02-25T03:51:50.143Z,0.20
2019-02-25T03:54:20.727Z,0.20
2019-02-25T03:56:51.608Z,0.10
2019-02-25T03:59:22.558Z,0.00
2019-02-25T04:01:53.394Z,-0.20
2019-02-25T04:04:24.045Z,-0.10
2019-02-25T04:06:54.764Z,-0.20
2019-02-25T04:09:25.724Z,-0.20
2019-02-25T04:11:56.437Z,-0.30
2019-02-25T04:14:26.997Z,-0.40
2019-02-25T04:16:57.781Z,-0.50
2019-02-25T04:19:28.342Z,-0.50
2019-02-25T04:21:59.067Z,-0.50
2019-02-25T04:24:29.634Z,-0.40
2019-02-25T04:27:00.430Z,-0.40
2019-02-25T04:29:31.009Z,-0.40
2019-02-25T04:32:01.790Z,-0.60
2019-02-25T04:34:32.351Z,-0.60
2019-02-25T04:37:03.165Z,-0.70
2019-02-25T04:39:33.737Z,-0.90
2019-02-25T04:42:04.515Z,-0.90
2019-02-25T04:44:35.090Z,-0.90
2019-02-25T04:47:05.894Z,-0.90
2019-02-25T04:49:36.477Z,-0.80
2019-02-25T04:52:07.598Z,-0.80
2019-02-25T04:54:38.154Z,-1.00
2019-02-25T04:57:08.931Z,-1.10
2019-02-25T04:59:39.500Z,-1.10
2019-02-25T05:02:10.293Z,-1.00
2019-02-25T05:04:40.869Z,-1.00
2019-02-25T05:07:11.732Z,-0.90
2019-02-25T05:09:42.522Z,-0.90
2019-02-25T05:12:13.242Z,-1.00
2019-02-25T05:14:44.047Z,-1.10
2019-02-25T05:17:14.960Z,-1.10
2019-02-25T05:19:45.700Z,-1.00
2019-02-25T05:22:16.256Z,-0.90
2019-02-25T05:24:46.981Z,-0.90
2019-02-25T05:27:17.565Z,-0.90
2019-02-25T05:29:48.245Z,-0.80
2019-02-25T05:32:18.806Z,-0.90
2019-02-25T05:34:49.495Z,-0.90
2019-02-25T05:37:20.071Z,-0.80
2019-02-25T05:39:50.747Z,-0.90
2019-02-25T05:42:21.375Z,-0.90
2019-02-25T05:44:52.365Z,-0.80
2019-02-25T05:47:22.926Z,-0.90
2019-02-25T05:49:53.679Z,-0.90
2019-02-25T05:52:24.570Z,-0.90
2019-02-25T05:54:55.247Z,-0.80
2019-02-25T05:57:25.840Z,-0.90
2019-02-25T05:59:56.529Z,-0.90
2019-02-25T06:02:27.117Z,-1.00
2019-02-25T06:04:58.660Z,-0.90
2019-02-25T06:07:29.243Z,-0.80
2019-02-25T06:09:59.826Z,-0.70
2019-02-25T06:12:30.612Z,-0.50
2019-02-25T06:15:01.193Z,-0.50
2019-02-25T06:17:31.959Z,-0.60
2019-02-25T06:20:02.543Z,-0.60
2019-02-25T06:22:33.320Z,-0.60
2019-02-25T06:25:03.919Z,-0.60
2019-02-25T06:27:34.801Z,-0.50
2019-02-25T06:30:06.304Z,-0.50
2019-02-25T06:32:37.016Z,-0.40
2019-02-25T06:35:08.357Z,-0.30
2019-02-25T06:37:39.057Z,-0.20
2019-02-25T06:40:11.793Z,0.00
2019-02-25T06:42:42.619Z,0.00
2019-02-25T06:45:16.029Z,0.10
2019-02-25T06:47:46.830Z,0.20
2019-02-25T06:50:17.405Z,0.20
2019-02-25T06:52:48.072Z,0.30
2019-02-25T06:55:18.853Z,0.30
2019-02-25T06:57:49.867Z,0.30
2019-02-25T07:00:20.478Z,0.40
2019-02-25T07:02:51.235Z,0.20
2019-02-25T07:05:38.232Z,0.20
2019-02-25T07:08:14.518Z,0.20
2019-02-25T07:11:04.090Z,0.20
2019-02-25T07:13:57.088Z,0.20
2019-02-25T07:16:45.351Z,0.40
2019-02-25T07:19:22.499Z,0.60
2019-02-25T07:22:05.946Z,0.70
2019-02-25T07:24:52.672Z,0.70
2019-02-25T07:27:43.540Z,0.80
2019-02-25T07:30:20.523Z,0.70
2019-02-25T07:33:09.085Z,0.80
2019-02-25T07:36:02.213Z,0.70
2019-02-25T07:39:06.862Z,0.80
2019-02-25T07:42:05.491Z,0.90
2019-02-25T07:44:47.642Z,1.00
2019-02-25T07:47:25.489Z,1.10
2019-02-25T07:50:30.174Z,1.00
2019-02-25T07:53:28.767Z,1.00
2019-02-25T07:56:21.580Z,0.90
2019-02-25T07:59:17.026Z,1.10
2019-02-25T08:02:06.549Z,1.30
2019-02-25T08:04:48.175Z,1.40
2019-02-25T08:07:37.424Z,1.50
2019-02-25T08:10:19.663Z,1.40
2019-02-25T08:13:00.635Z,1.50
2019-02-25T08:15:37.097Z,1.60
2019-02-25T08:18:26.621Z,1.60
2019-02-25T08:21:14.967Z,1.70
2019-02-25T08:24:30.381Z,1.70
2019-02-25T08:27:11.365Z,1.70
2019-02-25T08:30:13.138Z,1.90
2019-02-25T08:32:53.078Z,2.10
2019-02-25T08:36:46.647Z,2.30
2019-02-25T08:39:32.541Z,2.40
2019-02-25T08:42:07.797Z,2.60
2019-02-25T08:44:52.339Z,2.80
2019-02-25T08:47:41.867Z,3.00
2019-02-25T08:50:13.864Z,3.20
2019-02-25T08:52:44.497Z,3.40
2019-02-25T08:55:15.073Z,3.50
2019-02-25T08:57:45.705Z,3.60
2019-02-25T09:00:16.414Z,3.70
2019-02-25T09:02:47.084Z,3.80
2019-02-25T09:05:17.632Z,3.90
2019-02-25T09:07:48.242Z,4.10
2019-02-25T09:10:18.822Z,4.20
2019-02-25T09:12:49.792Z,4.20
2019-02-25T09:15:20.443Z,4.40
2019-02-25T09:17:48.588Z,4.60
2019-02-25T09:20:19.225Z,4.80
2019-02-25T09:22:49.791Z,5.00
2019-02-25T09:25:20.406Z,5.30
2019-02-25T09:27:50.967Z,5.50
2019-02-25T09:30:21.855Z,5.50
2019-02-25T09:32:52.417Z,5.40
2019-02-25T09:35:23.025Z,5.60
2019-02-25T09:37:53.590Z,5.70
2019-02-25T09:40:24.188Z,5.80
2019-02-25T09:42:54.755Z,5.70
2019-02-25T09:45:25.898Z,5.60
2019-02-25T09:47:56.461Z,5.70
2019-02-25T09:50:27.126Z,5.70
2019-02-25T09:52:57.702Z,5.60
2019-02-25T09:55:28.387Z,5.70
2019-02-25T09:57:58.950Z,6.00
2019-02-25T10:00:29.533Z,6.30
2019-02-25T10:03:00.091Z,6.60
2019-02-25T10:05:31.003Z,6.90
2019-02-25T10:08:01.876Z,7.30
2019-02-25T10:10:32.520Z,7.60
2019-02-25T10:13:03.453Z,7.60
2019-02-25T10:15:34.022Z,7.80
2019-02-25T10:18:04.661Z,7.80
2019-02-25T10:20:35.235Z,7.90
2019-02-25T10:23:06.176Z,7.90
2019-02-25T10:25:36.764Z,7.90
2019-02-25T10:28:07.382Z,8.10
2019-02-25T10:30:37.958Z,8.20
2019-02-25T10:33:08.561Z,8.30
2019-02-25T10:35:39.208Z,8.40
2019-02-25T10:38:09.827Z,8.50
2019-02-25T10:40:40.412Z,8.60
2019-02-25T10:43:11.066Z,8.80
2019-02-25T10:45:43.243Z,8.80
2019-02-25T10:48:15.190Z,9.00
2019-02-25T10:50:55.572Z,8.90
2019-02-25T10:53:20.271Z,8.90
2019-02-25T10:56:23.776Z,9.10
2019-02-25T10:58:54.963Z,9.10
2019-02-25T11:01:26.024Z,9.20
2019-02-25T11:03:56.576Z,9.40
2019-02-25T11:06:28.987Z,9.50
2019-02-25T11:09:18.103Z,9.40
2019-02-25T11:11:50.513Z,9.70
2019-02-25T11:14:21.672Z,11.00
2019-02-25T11:16:52.332Z,12.00
2019-02-25T11:19:24.569Z,12.80
2019-02-25T11:21:55.197Z,13.20
2019-02-25T11:24:25.790Z,13.50
2019-02-25T11:26:56.964Z,13.50
2019-02-25T11:29:29.136Z,13.80
2019-02-25T11:31:59.707Z,14.40
2019-02-25T11:34:35.231Z,15.10
2019-02-25T11:37:05.866Z,15.50
2019-02-25T11:39:37.228Z,15.60
2019-02-25T11:42:10.285Z,15.30
2019-02-25T11:44:40.652Z,15.20
2019-02-25T11:47:11.873Z,15.50
2019-02-25T11:49:42.474Z,15.40
2019-02-25T11:52:13.107Z,14.90
2019-02-25T11:54:43.675Z,14.40
2019-02-25T11:57:14.688Z,14.90
2019-02-25T11:59:45.561Z,15.80
2019-02-25T12:02:24.941Z,15.60
2019-02-25T12:04:48.597Z,15.40
2019-02-25T12:07:19.355Z,15.30
2019-02-25T12:09:49.936Z,15.70
2019-02-25T12:12:20.572Z,16.30
2019-02-25T12:14:51.211Z,16.20
2019-02-25T12:17:21.759Z,16.20
2019-02-25T12:19:52.372Z,16.80
2019-02-25T12:22:22.919Z,16.90
2019-02-25T12:24:53.625Z,17.30
2019-02-25T12:27:24.353Z,16.60
2019-02-25T12:29:55.030Z,16.60
2019-02-25T12:32:25.599Z,17.60
2019-02-25T12:34:56.386Z,17.50
2019-02-25T12:37:26.956Z,17.60
2019-02-25T12:39:57.653Z,17.70
2019-02-25T12:42:28.228Z,17.80
2019-02-25T12:44:58.834Z,17.70
2019-02-25T12:47:29.411Z,18.20
2019-02-25T12:50:00.268Z,17.50
2019-02-25T12:52:30.841Z,17.70
2019-02-25T12:55:01.968Z,17.90
2019-02-25T12:57:32.926Z,17.60
2019-02-25T13:00:03.528Z,17.70
2019-02-25T13:02:34.184Z,18.80
2019-02-25T13:05:05.543Z,18.70
2019-02-25T13:07:36.422Z,18.50
2019-02-25T13:10:09.687Z,18.60
2019-02-25T13:12:40.587Z,18.00
2019-02-25T13:15:13.824Z,18.80
2019-02-25T13:17:44.570Z,19.00
2019-02-25T13:20:15.632Z,19.10
2019-02-25T13:22:46.266Z,19.30
2019-02-25T13:25:16.877Z,18.40
2019-02-25T13:27:47.524Z,18.40
2019-02-25T13:30:18.197Z,18.80
2019-02-25T13:32:48.873Z,18.80
2019-02-25T13:35:19.458Z,18.70
2019-02-25T13:37:50.143Z,19.00
2019-02-25T13:40:20.916Z,19.00
2019-02-25T13:42:51.912Z,18.90
2019-02-25T13:45:22.741Z,19.00
2019-02-25T13:47:53.395Z,18.80
2019-02-25T13:50:23.966Z,19.00
2019-02-25T13:52:54.651Z,18.30
2019-02-25T13:55:25.265Z,18.60
2019-02-25T13:57:57.679Z,18.70
2019-02-25T14:00:28.802Z,19.50
2019-02-25T14:02:59.536Z,20.00
2019-02-25T14:05:30.185Z,20.00
2019-02-25T14:08:00.792Z,19.90
2019-02-25T14:10:31.654Z,20.20
2019-02-25T14:13:02.567Z,19.90
2019-02-25T14:15:33.191Z,19.80
2019-02-25T14:18:03.786Z,19.60
2019-02-25T14:20:34.797Z,19.20
2019-02-25T14:23:06.043Z,20.30
2019-02-25T14:25:38.286Z,20.60
2019-02-25T14:28:09.887Z,20.40
2019-02-25T14:30:41.155Z,20.30
2019-02-25T14:33:12.721Z,20.00
2019-02-25T14:35:44.072Z,21.20
2019-02-25T14:38:17.735Z,21.20
2019-02-25T14:40:49.319Z,20.30
2019-02-25T14:43:20.702Z,20.90
2019-02-25T14:45:55.742Z,21.50
2019-02-25T14:48:25.354Z,21.40
2019-02-25T14:50:56.553Z,21.70
2019-02-25T14:53:29.454Z,21.40
2019-02-25T14:56:03.899Z,21.20
2019-02-25T14:58:35.465Z,20.80
2019-02-25T15:01:05.426Z,20.50
2019-02-25T15:03:36.304Z,20.60
2019-02-25T15:06:06.878Z,20.60
2019-02-25T15:08:37.542Z,21.10
2019-02-25T15:11:09.225Z,21.70
2019-02-25T15:13:41.054Z,21.50
2019-02-25T15:16:11.814Z,22.10
2019-02-25T15:18:42.506Z,20.80
2019-02-25T15:21:15.704Z,19.80
2019-02-25T15:23:45.505Z,19.40
2019-02-25T15:26:17.360Z,18.70
2019-02-25T15:28:51.675Z,17.90
2019-02-25T15:31:21.661Z,17.40
2019-02-25T15:33:52.702Z,17.00
2019-02-25T15:36:24.736Z,16.80
2019-02-25T15:38:55.799Z,16.80
2019-02-25T15:41:26.468Z,16.90
2019-02-25T15:43:59.841Z,16.90
2019-02-25T15:46:29.484Z,17.70
2019-02-25T15:49:00.170Z,18.30
2019-02-25T15:51:32.610Z,18.20
2019-02-25T15:54:03.464Z,18.00
2019-02-25T15:56:34.101Z,17.40
2019-02-25T15:59:04.829Z,16.50
2019-02-25T16:01:35.470Z,15.80
2019-02-25T16:04:07.124Z,15.20
2019-02-25T16:06:39.830Z,15.00
2019-02-25T16:09:11.128Z,14.80
2019-02-25T16:11:43.464Z,14.60
2019-02-25T16:14:14.300Z,14.50
2019-02-25T16:16:45.187Z,14.40
2019-02-25T16:19:16.981Z,14.30
2019-02-25T16:21:47.826Z,14.10
2019-02-25T16:24:18.756Z,14.00
2019-02-25T16:26:49.670Z,13.90
2019-02-25T16:29:20.266Z,13.90
2019-02-25T16:31:51.559Z,13.80
2019-02-25T16:34:23.623Z,13.60
2019-02-25T16:36:55.588Z,13.40
2019-02-25T16:39:26.569Z,13.20
2019-02-25T16:41:57.570Z,13.10
2019-02-25T16:44:28.273Z,13.00
2019-02-25T16:46:59.280Z,12.90
2019-02-25T16:49:31.629Z,12.80
2019-02-25T16:52:02.350Z,12.60
2019-02-25T16:54:33.386Z,12.50
2019-02-25T16:57:04.050Z,12.40
2019-02-25T16:59:34.973Z,12.30
2019-02-25T17:02:07.128Z,12.20
2019-02-25T17:04:37.990Z,12.10
2019-02-25T17:07:08.678Z,12.00
2019-02-25T17:09:40.722Z,11.90
2019-02-25T17:12:12.108Z,11.80
2019-02-25T17:14:42.777Z,11.90
2019-02-25T17:17:13.474Z,11.70
2019-02-25T17:19:44.914Z,11.70
2019-02-25T17:22:15.582Z,11.60
2019-02-25T17:24:46.172Z,11.50
2019-02-25T17:27:16.889Z,11.40
2019-02-25T17:29:49.117Z,11.30
2019-02-25T17:32:21.163Z,11.10
2019-02-25T17:34:52.479Z,11.00
2019-02-25T17:37:23.146Z,10.80
2019-02-25T17:39:54.441Z,10.80
2019-02-25T17:42:26.441Z,10.70
2019-02-25T17:44:59.743Z,10.60
2019-02-25T17:47:32.457Z,10.50
2019-02-25T17:50:04.439Z,10.30
2019-02-25T17:52:36.081Z,10.30
2019-02-25T17:55:12.687Z,10.10
2019-02-25T17:57:43.445Z,10.00
2019-02-25T18:00:21.082Z,9.90
2019-02-25T18:02:52.867Z,10.10
2019-02-25T18:05:24.024Z,10.00
2019-02-25T18:07:54.620Z,10.00
2019-02-25T18:10:26.832Z,10.00
2019-02-25T18:12:59.062Z,10.00
2019-02-25T18:15:30.641Z,10.00
2019-02-25T18:18:02.567Z,10.00
2019-02-25T18:20:33.276Z,10.10
2019-02-25T18:23:04.998Z,10.10
2019-02-25T18:25:37.631Z,10.10
2019-02-25T18:28:10.540Z,9.90
2019-02-25T18:30:41.051Z,9.80
2019-02-25T18:33:12.581Z,9.70
2019-02-25T18:35:45.252Z,9.50
2019-02-25T18:38:15.610Z,9.50
2019-02-25T18:40:46.398Z,9.40
2019-02-25T18:43:17.334Z,9.40
2019-02-25T18:45:48.208Z,9.40
2019-02-25T18:48:20.671Z,9.30
2019-02-25T18:50:52.641Z,9.30
2019-02-25T18:53:25.015Z,9.30
2019-02-25T18:55:56.866Z,9.40
2019-02-25T18:58:27.607Z,9.40
2019-02-25T19:00:58.336Z,9.40
2019-02-25T19:03:30.689Z,9.40
2019-02-25T19:06:01.498Z,9.30
2019-02-25T19:08:32.367Z,9.20
2019-02-25T19:11:03.217Z,9.10
2019-02-25T19:13:33.912Z,9.00
2019-02-25T19:16:04.748Z,9.00
2019-02-25T19:18:36.348Z,8.90
2019-02-25T19:21:09.238Z,8.80
2019-02-25T19:23:41.853Z,8.80
2019-02-25T19:26:15.381Z,8.70
2019-02-25T19:28:48.079Z,8.70
2019-02-25T19:31:18.697Z,8.60
2019-02-25T19:33:49.381Z,8.40
2019-02-25T19:36:20.269Z,8.40
2019-02-25T19:38:51.287Z,8.30
2019-02-25T19:41:22.924Z,8.20
2019-02-25T19:43:59.240Z,8.20
2019-02-25T19:46:26.618Z,8.30
2019-02-25T19:48:57.382Z,8.30
2019-02-25T19:51:29.685Z,8.20
2019-02-25T19:54:02.505Z,8.20
2019-02-25T19:56:32.796Z,8.10
2019-02-25T19:59:05.505Z,8.10
2019-02-25T20:01:35.803Z,8.00
2019-02-25T20:04:08.724Z,8.00
2019-02-25T20:06:39.217Z,8.10
2019-02-25T20:09:10.584Z,8.10
2019-02-25T20:11:42.803Z,8.00
2019-02-25T20:14:16.601Z,8.00
2019-02-25T20:16:46.645Z,8.00
2019-02-25T20:19:17.334Z,8.10
2019-02-25T20:21:48.655Z,8.00
2019-02-25T20:24:21.658Z,7.90
2019-02-25T20:26:57.634Z,7.80
2019-02-25T20:29:25.422Z,7.80
2019-02-25T20:31:56.607Z,7.70
2019-02-25T20:34:30.420Z,7.80
2019-02-25T20:37:02.334Z,7.80
2019-02-25T20:39:33.822Z,7.90
2019-02-25T20:42:05.734Z,8.00
2019-02-25T20:44:36.708Z,8.00
2019-02-25T20:47:07.319Z,8.00
2019-02-25T20:49:37.958Z,8.10
2019-02-25T20:52:08.638Z,8.10
2019-02-25T20:54:41.597Z,8.20
2019-02-25T20:57:12.585Z,8.10
2019-02-25T20:59:44.035Z,8.00
2019-02-25T21:02:16.251Z,8.00
2019-02-25T21:04:48.571Z,7.70
2019-02-25T21:07:19.699Z,7.50
2019-02-25T21:09:50.691Z,7.30
2019-02-25T21:12:21.421Z,7.10
2019-02-25T21:14:52.424Z,6.90
2019-02-25T21:17:23.040Z,6.90
2019-02-25T21:19:53.642Z,6.90
2019-02-25T21:22:27.113Z,6.90
2019-02-25T21:24:58.084Z,6.90
2019-02-25T21:27:30.404Z,6.80
2019-02-25T21:30:03.884Z,6.80
2019-02-25T21:32:34.109Z,6.80
2019-02-25T21:35:05.682Z,6.80
2019-02-25T21:37:36.379Z,6.70
2019-02-25T21:40:10.024Z,6.60
2019-02-25T21:42:41.677Z,6.60
2019-02-25T21:45:17.964Z,6.60
2019-02-25T21:47:47.629Z,6.70
2019-02-25T21:50:19.298Z,6.60
2019-02-25T21:52:50.265Z,6.70
2019-02-25T21:55:23.149Z,6.80
2019-02-25T21:57:55.029Z,6.80
2019-02-25T22:00:27.154Z,6.90
2019-02-25T22:02:58.783Z,7.00
2019-02-25T22:05:29.383Z,7.00
2019-02-25T22:08:01.892Z,6.80
2019-02-25T22:10:34.483Z,6.50
2019-02-25T22:13:08.534Z,6.30
2019-02-25T22:15:39.012Z,6.20
2019-02-25T22:18:11.455Z,6.10
2019-02-25T22:20:42.770Z,6.10
2019-02-25T22:23:14.150Z,6.10
2019-02-25T22:25:44.802Z,6.00
2019-02-25T22:28:15.395Z,5.90
2019-02-25T22:30:47.577Z,5.80
2019-02-25T22:33:27.011Z,5.70
2019-02-25T22:35:51.817Z,5.70
2019-02-25T22:38:22.994Z,5.70
2019-02-25T22:40:55.408Z,5.70
2019-02-25T22:43:25.963Z,5.80
2019-02-25T22:45:59.963Z,5.80
2019-02-25T22:48:29.346Z,5.70
2019-02-25T22:51:02.409Z,5.70
2019-02-25T22:53:32.994Z,5.70
2019-02-25T22:56:03.599Z,5.70
2019-02-25T22:58:36.193Z,5.70
2019-02-25T23:01:18.068Z,5.60
2019-02-25T23:03:50.487Z,5.60
2019-02-25T23:06:21.339Z,5.50
2019-02-25T23:08:54.035Z,5.60
2019-02-25T23:11:26.158Z,5.60
2019-02-25T23:13:56.810Z,5.60
2019-02-25T23:16:27.516Z,5.70
2019-02-25T23:18:58.082Z,5.70
2019-02-25T23:21:31.351Z,5.70
2019-02-25T23:24:03.066Z,5.70
2019-02-25T23:26:34.265Z,5.70
2019-02-25T23:29:05.069Z,5.80
2019-02-25T23:31:35.701Z,5.80
2019-02-25T23:34:08.009Z,5.80
2019-02-25T23:36:42.995Z,5.70
2019-02-25T23:39:12.261Z,5.70
2019-02-25T23:41:43.925Z,5.70
2019-02-25T23:44:17.333Z,5.70
2019-02-25T23:46:47.713Z,5.60
2019-02-25T23:49:27.068Z,5.50
2019-02-25T23:51:50.916Z,5.30
2019-02-25T23:54:23.248Z,5.20
2019-02-25T23:56:55.167Z,5.30
2019-02-25T23:59:26.696Z,5.20
